createdAt,value
2019-02-22T00:00:03.563Z,6.09
2019-02-22T00:01:03.542Z,6.09
2019-02-22T00:02:03.556Z,6.06
2019-02-22T00:03:03.555Z,6.07
2019-02-22T00:04:03.505Z,6.07
2019-02-22T00:05:03.498Z,6.05
2019-02-22T00:06:03.567Z,6.06
2019-02-22T00:07:03.477Z,6.06
2019-02-22T00:08:03.456Z,6.03
2019-02-22T00:09:03.429Z,6.13
2019-02-22T00:10:03.415Z,6.07
2019-02-22T00:11:03.477Z,6.07
2019-02-22T00:12:03.387Z,6.1
2019-02-22T00:13:03.371Z,6.02
2019-02-22T00:14:03.359Z,5.99
2019-02-22T00:15:03.344Z,6.03
2019-02-22T00:16:03.078Z,6.13
2019-02-22T00:17:03.312Z,6.14
2019-02-22T00:18:03.289Z,6.05
2019-02-22T00:19:03.045Z,6.02
2019-02-22T00:20:03.017Z,5.99
2019-02-22T00:21:03.252Z,6.1
2019-02-22T00:22:03.064Z,6.09
2019-02-22T00:23:03.251Z,6.14
2019-02-22T00:24:03.207Z,6.06
2019-02-22T00:25:03.196Z,6.17
2019-02-22T00:26:03.238Z,6.06
2019-02-22T00:27:02.916Z,6.1
2019-02-22T00:28:03.162Z,6.05
2019-02-22T00:29:03.135Z,6.09
2019-02-22T00:30:03.127Z,6.05
2019-02-22T00:31:03.098Z,6.14
2019-02-22T00:32:03.235Z,6.1
2019-02-22T00:33:03.095Z,6.06
2019-02-22T00:34:03.144Z,6.1
2019-02-22T00:35:03.342Z,6.1
2019-02-22T00:36:03.296Z,6.14
2019-02-22T00:37:02.935Z,6.1
2019-02-22T00:38:03.000Z,6.09
2019-02-22T00:39:02.994Z,6.07
2019-02-22T00:40:02.971Z,6.1
2019-02-22T00:41:02.795Z,6.17
2019-02-22T00:42:02.707Z,6.13
2019-02-22T00:43:02.946Z,6.07
2019-02-22T00:44:02.913Z,6.21
2019-02-22T00:45:02.900Z,6.15
2019-02-22T00:46:02.931Z,6.14
2019-02-22T00:47:02.898Z,6.21
2019-02-22T00:48:02.936Z,6.14
2019-02-22T00:49:02.838Z,6.13
2019-02-22T00:50:02.577Z,6.13
2019-02-22T00:51:02.803Z,6.15
2019-02-22T00:52:02.792Z,6.17
2019-02-22T00:53:02.531Z,6.18
2019-02-22T00:54:02.763Z,6.2
2019-02-22T00:55:02.838Z,6.13
2019-02-22T00:56:02.727Z,6.18
2019-02-22T00:57:02.719Z,6.18
2019-02-22T00:58:02.704Z,6.17
2019-02-22T00:59:02.710Z,6.17
2019-02-22T01:00:02.430Z,6.18
2019-02-22T01:01:02.664Z,6.25
2019-02-22T01:02:02.694Z,6.25
2019-02-22T01:03:02.382Z,6.13
2019-02-22T01:04:02.625Z,6.24
2019-02-22T01:05:02.687Z,6.18
2019-02-22T01:06:02.587Z,6.21
2019-02-22T01:07:02.575Z,6.2
2019-02-22T01:08:02.308Z,6.2
2019-02-22T01:09:02.549Z,6.2
2019-02-22T01:10:02.542Z,6.2
2019-02-22T01:11:02.522Z,6.14
2019-02-22T01:12:02.516Z,6.15
2019-02-22T01:13:02.483Z,6.2
2019-02-22T01:14:02.226Z,6.26
2019-02-22T01:15:02.470Z,6.26
2019-02-22T01:16:02.440Z,6.26
2019-02-22T01:17:02.420Z,6.2
2019-02-22T01:18:02.413Z,6.28
2019-02-22T01:19:02.402Z,6.2
2019-02-22T01:20:02.389Z,6.24
2019-02-22T01:21:02.124Z,6.17
2019-02-22T01:22:02.349Z,6.2
2019-02-22T01:23:02.091Z,6.28
2019-02-22T01:24:02.323Z,6.29
2019-02-22T01:25:02.310Z,6.26
2019-02-22T01:26:02.292Z,6.2
2019-02-22T01:27:02.279Z,6.28
2019-02-22T01:28:02.015Z,6.31
2019-02-22T01:29:02.250Z,6.28
2019-02-22T01:30:01.985Z,6.26
2019-02-22T01:31:01.969Z,6.31
2019-02-22T01:32:02.205Z,6.29
2019-02-22T01:33:02.190Z,6.25
2019-02-22T01:34:02.186Z,6.26
2019-02-22T01:35:01.926Z,6.26
2019-02-22T01:36:02.161Z,6.33
2019-02-22T01:37:02.132Z,6.28
2019-02-22T01:38:02.121Z,6.28
2019-02-22T01:39:01.862Z,6.25
2019-02-22T01:40:02.148Z,6.25
2019-02-22T01:41:02.080Z,6.28
2019-02-22T01:42:02.098Z,6.26
2019-02-22T01:43:01.797Z,6.26
2019-02-22T01:44:02.036Z,6.26
2019-02-22T01:45:02.010Z,6.33
2019-02-22T01:46:01.996Z,6.29
2019-02-22T01:47:01.739Z,6.28
2019-02-22T01:48:01.983Z,6.26
2019-02-22T01:49:01.711Z,6.31
2019-02-22T01:50:01.944Z,6.33
2019-02-22T01:51:01.943Z,6.33
2019-02-22T01:52:01.916Z,6.31
2019-02-22T01:53:01.897Z,6.33
2019-02-22T01:54:01.886Z,6.34
2019-02-22T01:55:01.871Z,6.29
2019-02-22T01:56:01.857Z,6.33
2019-02-22T01:57:01.834Z,6.36
2019-02-22T01:58:01.829Z,6.34
2019-02-22T01:59:01.820Z,6.33
2019-02-22T02:00:01.801Z,6.33
2019-02-22T02:01:01.783Z,6.33
2019-02-22T02:02:01.770Z,6.34
2019-02-22T02:03:01.789Z,6.31
2019-02-22T02:04:01.763Z,6.36
2019-02-22T02:05:01.725Z,6.36
2019-02-22T02:06:01.704Z,6.18
2019-02-22T02:07:01.709Z,6.34
2019-02-22T02:08:01.685Z,6.25
2019-02-22T02:09:01.663Z,6.25
2019-02-22T02:10:01.647Z,6.31
2019-02-22T02:11:01.387Z,6.31
2019-02-22T02:12:04.279Z,6.31
2019-02-22T02:13:01.719Z,6.34
2019-02-22T02:14:01.594Z,6.34
2019-02-22T02:15:01.573Z,6.31
2019-02-22T02:16:01.555Z,6.36
2019-02-22T02:17:01.295Z,6.34
2019-02-22T02:18:01.530Z,6.33
2019-02-22T02:19:01.506Z,6.33
2019-02-22T02:20:01.916Z,6.26
2019-02-22T02:21:01.506Z,6.33
2019-02-22T02:22:01.476Z,6.36
2019-02-22T02:23:01.461Z,6.26
2019-02-22T02:24:01.441Z,6.33
2019-02-22T02:25:01.426Z,6.33
2019-02-22T02:26:01.421Z,6.26
2019-02-22T02:27:01.403Z,6.33
2019-02-22T02:28:01.385Z,6.29
2019-02-22T02:29:01.370Z,6.31
2019-02-22T02:30:01.359Z,6.28
2019-02-22T02:31:01.361Z,6.26
2019-02-22T02:32:01.330Z,6.33
2019-02-22T02:33:01.318Z,6.29
2019-02-22T02:34:01.308Z,6.34
2019-02-22T02:35:01.295Z,6.33
2019-02-22T02:36:01.269Z,6.34
2019-02-22T02:37:01.255Z,6.39
2019-02-22T02:38:01.247Z,6.29
2019-02-22T02:39:01.223Z,6.29
2019-02-22T02:40:01.207Z,6.31
2019-02-22T02:41:14.050Z,6.28
2019-02-22T02:42:01.294Z,6.34
2019-02-22T02:43:01.166Z,6.36
2019-02-22T02:44:01.149Z,6.33
2019-02-22T02:45:01.138Z,6.31
2019-02-22T02:46:01.123Z,6.36
2019-02-22T02:47:01.127Z,6.37
2019-02-22T02:48:01.093Z,6.34
2019-02-22T02:49:01.075Z,6.29
2019-02-22T02:50:01.061Z,6.28
2019-02-22T02:51:01.059Z,6.31
2019-02-22T02:52:01.032Z,6.28
2019-02-22T02:53:00.782Z,6.31
2019-02-22T02:54:01.014Z,6.34
2019-02-22T02:55:00.998Z,6.29
2019-02-22T02:56:00.975Z,6.34
2019-02-22T02:57:00.970Z,6.37
2019-02-22T02:58:00.956Z,6.33
2019-02-22T02:59:00.936Z,6.33
2019-02-22T03:00:00.921Z,6.31
2019-02-22T03:01:00.965Z,6.33
2019-02-22T03:02:00.890Z,6.28
2019-02-22T03:03:00.898Z,6.26
2019-02-22T03:04:00.856Z,6.31
2019-02-22T03:05:00.849Z,6.29
2019-02-22T03:06:00.826Z,6.21
2019-02-22T03:07:00.864Z,6.36
2019-02-22T03:08:00.803Z,6.33
2019-02-22T03:09:00.786Z,6.36
2019-02-22T03:10:00.864Z,6.28
2019-02-22T03:11:00.774Z,6.33
2019-02-22T03:12:00.743Z,6.29
2019-02-22T03:13:00.806Z,6.34
2019-02-22T03:14:00.473Z,6.37
2019-02-22T03:15:00.774Z,6.31
2019-02-22T03:16:00.723Z,6.34
2019-02-22T03:17:00.675Z,6.26
2019-02-22T03:18:00.683Z,6.34
2019-02-22T03:19:00.644Z,6.26
2019-02-22T03:20:00.638Z,6.36
2019-02-22T03:21:00.614Z,6.29
2019-02-22T03:22:00.356Z,6.33
2019-02-22T03:23:00.342Z,6.33
2019-02-22T03:24:00.338Z,6.31
2019-02-22T03:25:00.559Z,6.28
2019-02-22T03:26:00.542Z,6.26
2019-02-22T03:27:00.588Z,6.24
2019-02-22T03:28:00.528Z,6.28
2019-02-22T03:29:00.504Z,6.25
2019-02-22T03:30:00.703Z,6.28
2019-02-22T03:31:00.487Z,6.34
2019-02-22T03:32:00.482Z,6.26
2019-02-22T03:33:00.449Z,6.34
2019-02-22T03:34:00.460Z,6.33
2019-02-22T03:35:00.535Z,6.31
2019-02-22T03:36:00.400Z,6.33
2019-02-22T03:37:00.379Z,6.26
2019-02-22T03:38:00.121Z,6.33
2019-02-22T03:39:00.361Z,6.26
2019-02-22T03:40:00.535Z,6.25
2019-02-22T03:41:00.321Z,6.24
2019-02-22T03:42:00.312Z,6.28
2019-02-22T03:43:00.294Z,6.29
2019-02-22T03:44:00.297Z,6.25
2019-02-22T03:45:00.352Z,6.28
2019-02-22T03:46:00.246Z,6.31
2019-02-22T03:47:00.235Z,6.26
2019-02-22T03:48:00.224Z,6.26
2019-02-22T03:49:00.013Z,6.29
2019-02-22T03:50:00.423Z,6.31
2019-02-22T03:51:00.175Z,6.25
2019-02-22T03:52:00.162Z,6.24
2019-02-22T03:53:00.151Z,6.26
2019-02-22T03:54:02.393Z,6.28
2019-02-22T03:55:00.426Z,6.25
2019-02-22T03:56:00.121Z,6.29
2019-02-22T03:57:00.094Z,6.28
2019-02-22T03:58:00.071Z,6.33
2019-02-22T03:59:00.069Z,6.25
2019-02-22T04:00:00.046Z,6.26
2019-02-22T04:01:00.032Z,6.2
2019-02-22T04:02:00.027Z,6.34
2019-02-22T04:03:00.015Z,6.28
2019-02-22T04:03:59.988Z,6.31
2019-02-22T04:04:59.978Z,6.33
2019-02-22T04:05:59.966Z,6.31
2019-02-22T04:06:59.944Z,6.21
2019-02-22T04:07:59.444Z,6.26
2019-02-22T04:09:00.068Z,6.26
2019-02-22T04:09:59.912Z,6.29
2019-02-22T04:10:59.934Z,6.17
2019-02-22T04:11:59.868Z,6.17
2019-02-22T04:12:59.854Z,6.14
2019-02-22T04:13:59.847Z,6.2
2019-02-22T04:14:59.827Z,6.21
2019-02-22T04:15:59.812Z,6.18
2019-02-22T04:16:59.797Z,6.25
2019-02-22T04:17:59.781Z,6.21
2019-02-22T04:18:59.770Z,6.17
2019-02-22T04:19:59.507Z,6.21
2019-02-22T04:20:59.535Z,6.21
2019-02-22T04:21:59.725Z,6.14
2019-02-22T04:22:59.715Z,6.14
2019-02-22T04:23:59.694Z,6.18
2019-02-22T04:24:59.446Z,6.21
2019-02-22T04:25:59.673Z,6.25
2019-02-22T04:26:59.402Z,6.15
2019-02-22T04:27:59.645Z,6.25
2019-02-22T04:28:59.622Z,6.18
2019-02-22T04:29:59.607Z,6.17
2019-02-22T04:30:59.595Z,6.25
2019-02-22T04:31:59.583Z,6.15
2019-02-22T04:32:59.569Z,6.25
2019-02-22T04:33:59.561Z,6.18
2019-02-22T04:34:59.529Z,6.2
2019-02-22T04:35:59.526Z,6.14
2019-02-22T04:36:59.513Z,6.17
2019-02-22T04:37:59.492Z,6.17
2019-02-22T04:38:59.493Z,6.17
2019-02-22T04:39:59.457Z,6.17
2019-02-22T04:40:59.456Z,6.14
2019-02-22T04:42:03.106Z,6.15
2019-02-22T04:42:59.416Z,6.1
2019-02-22T04:43:59.154Z,6.17
2019-02-22T04:44:59.139Z,6.09
2019-02-22T04:45:59.369Z,6.21
2019-02-22T04:46:59.426Z,6.2
2019-02-22T04:47:59.339Z,6.14
2019-02-22T04:48:59.325Z,6.06
2019-02-22T04:49:59.313Z,6.07
2019-02-22T04:50:59.074Z,6.18
2019-02-22T04:51:59.300Z,6.09
2019-02-22T04:52:59.274Z,6.17
2019-02-22T04:53:59.026Z,6.1
2019-02-22T04:54:59.243Z,6.14
2019-02-22T04:55:59.235Z,6.1
2019-02-22T04:56:58.961Z,6.05
2019-02-22T04:57:58.947Z,6.15
2019-02-22T04:58:59.187Z,6.09
2019-02-22T04:59:59.164Z,6.09
2019-02-22T05:00:59.155Z,6.13
2019-02-22T05:01:58.890Z,6.09
2019-02-22T05:02:59.120Z,6.15
2019-02-22T05:03:59.104Z,6.02
2019-02-22T05:04:59.101Z,6.18
2019-02-22T05:05:59.074Z,6.05
2019-02-22T05:06:59.059Z,6.03
2019-02-22T05:07:59.054Z,6.1
2019-02-22T05:08:59.040Z,6.06
2019-02-22T05:09:59.023Z,6.09
2019-02-22T05:10:58.748Z,6.06
2019-02-22T05:12:10.024Z,6.1
2019-02-22T05:12:58.974Z,6.03
2019-02-22T05:13:58.977Z,6.13
2019-02-22T05:15:11.335Z,6.1
2019-02-22T05:15:58.939Z,6.06
2019-02-22T05:16:58.962Z,6.05
2019-02-22T05:17:58.904Z,6.06
2019-02-22T05:18:58.899Z,6.05
2019-02-22T05:19:58.866Z,6.1
2019-02-22T05:20:58.885Z,6.03
2019-02-22T05:21:58.842Z,6.07
2019-02-22T05:23:10.003Z,6.09
2019-02-22T05:23:58.816Z,5.98
2019-02-22T05:24:58.545Z,6
2019-02-22T05:25:58.778Z,5.99
2019-02-22T05:26:58.771Z,5.96
2019-02-22T05:27:58.747Z,6.02
2019-02-22T05:28:58.732Z,6.02
2019-02-22T05:29:58.477Z,6.05
2019-02-22T05:30:58.709Z,5.99
2019-02-22T05:31:58.690Z,6.03
2019-02-22T05:32:58.680Z,6.02
2019-02-22T05:33:58.665Z,6.06
2019-02-22T05:34:58.645Z,5.96
2019-02-22T05:35:58.637Z,6.02
2019-02-22T05:36:58.372Z,6.03
2019-02-22T05:37:58.182Z,5.96
2019-02-22T05:38:58.595Z,6.02
2019-02-22T05:39:58.572Z,5.99
2019-02-22T05:40:58.323Z,6
2019-02-22T05:41:58.543Z,5.98
2019-02-22T05:42:58.531Z,6
2019-02-22T05:43:58.515Z,5.96
2019-02-22T05:44:58.255Z,5.98
2019-02-22T05:45:58.242Z,6
2019-02-22T05:47:05.351Z,5.88
2019-02-22T05:47:58.461Z,6.06
2019-02-22T05:48:58.444Z,5.91
2019-02-22T05:49:58.429Z,5.92
2019-02-22T05:50:58.405Z,5.92
2019-02-22T05:51:58.398Z,5.85
2019-02-22T05:52:58.428Z,5.91
2019-02-22T05:53:58.363Z,5.98
2019-02-22T05:54:58.357Z,5.82
2019-02-22T05:55:58.333Z,6
2019-02-22T05:57:00.055Z,5.87
2019-02-22T05:57:58.319Z,5.95
2019-02-22T05:58:58.294Z,5.88
2019-02-22T05:59:58.327Z,5.95
2019-02-22T06:00:58.300Z,5.89
2019-02-22T06:01:58.243Z,5.98
2019-02-22T06:02:58.235Z,5.88
2019-02-22T06:03:58.220Z,5.85
2019-02-22T06:04:58.198Z,5.89
2019-02-22T06:05:57.947Z,5.98
2019-02-22T06:06:58.189Z,5.96
2019-02-22T06:07:58.159Z,5.88
2019-02-22T06:08:57.923Z,5.87
2019-02-22T06:09:58.125Z,5.88
2019-02-22T06:10:58.108Z,5.85
2019-02-22T06:11:58.111Z,5.88
2019-02-22T06:12:58.075Z,5.87
2019-02-22T06:13:57.816Z,5.98
2019-02-22T06:14:58.052Z,5.98
2019-02-22T06:15:58.040Z,5.96
2019-02-22T06:16:58.014Z,5.92
2019-02-22T06:17:58.012Z,5.84
2019-02-22T06:18:57.986Z,5.91
2019-02-22T06:19:57.970Z,5.92
2019-02-22T06:20:57.958Z,5.89
2019-02-22T06:21:57.964Z,5.96
2019-02-22T06:22:57.934Z,5.89
2019-02-22T06:23:57.913Z,5.95
2019-02-22T06:24:57.903Z,5.85
2019-02-22T06:25:57.879Z,5.91
2019-02-22T06:26:57.867Z,5.99
2019-02-22T06:27:57.861Z,5.96
2019-02-22T06:28:57.593Z,5.91
2019-02-22T06:29:57.823Z,5.89
2019-02-22T06:30:57.824Z,5.92
2019-02-22T06:31:57.982Z,5.89
2019-02-22T06:32:57.800Z,5.92
2019-02-22T06:33:57.759Z,5.96
2019-02-22T06:34:57.507Z,5.87
2019-02-22T06:35:57.736Z,5.92
2019-02-22T06:37:06.325Z,6
2019-02-22T06:37:57.460Z,5.96
2019-02-22T06:38:57.690Z,5.89
2019-02-22T06:39:57.686Z,5.95
2019-02-22T06:40:57.657Z,5.95
2019-02-22T06:41:57.641Z,5.89
2019-02-22T06:42:57.391Z,5.92
2019-02-22T06:43:57.609Z,5.99
2019-02-22T06:44:57.418Z,5.89
2019-02-22T06:45:57.584Z,5.91
2019-02-22T06:46:57.562Z,5.88
2019-02-22T06:47:57.555Z,5.84
2019-02-22T06:48:57.290Z,5.87
2019-02-22T06:49:57.530Z,5.84
2019-02-22T06:50:57.258Z,5.92
2019-02-22T06:51:57.496Z,5.77
2019-02-22T06:52:57.225Z,5.81
2019-02-22T06:53:57.465Z,5.82
2019-02-22T06:54:57.199Z,5.82
2019-02-22T06:55:57.189Z,5.82
2019-02-22T06:56:57.418Z,5.72
2019-02-22T06:57:57.166Z,5.75
2019-02-22T06:58:57.393Z,5.7
2019-02-22T06:59:57.116Z,5.75
2019-02-22T07:00:57.110Z,5.8
2019-02-22T07:01:57.090Z,5.7
2019-02-22T07:02:57.325Z,5.67
2019-02-22T07:03:57.064Z,5.77
2019-02-22T07:04:57.298Z,5.7
2019-02-22T07:05:57.277Z,5.69
2019-02-22T07:06:57.267Z,5.73
2019-02-22T07:07:59.294Z,5.77
2019-02-22T07:08:57.240Z,5.75
2019-02-22T07:09:57.221Z,5.73
2019-02-22T07:10:57.211Z,5.73
2019-02-22T07:11:57.194Z,5.75
2019-02-22T07:13:02.014Z,5.7
2019-02-22T07:13:57.162Z,5.66
2019-02-22T07:14:56.895Z,5.69
2019-02-22T07:15:57.126Z,5.72
2019-02-22T07:16:57.106Z,5.7
2019-02-22T07:17:56.846Z,5.75
2019-02-22T07:18:57.081Z,5.72
2019-02-22T07:19:57.068Z,5.64
2019-02-22T07:20:57.054Z,5.64
2019-02-22T07:21:58.025Z,5.66
2019-02-22T07:22:57.037Z,5.62
2019-02-22T07:23:57.012Z,5.62
2019-02-22T07:24:57.003Z,5.62
2019-02-22T07:25:56.982Z,5.64
2019-02-22T07:26:56.461Z,5.64
2019-02-22T07:27:56.951Z,5.63
2019-02-22T07:28:56.933Z,5.67
2019-02-22T07:29:56.981Z,5.62
2019-02-22T07:30:56.901Z,5.67
2019-02-22T07:32:08.358Z,5.57
2019-02-22T07:32:56.758Z,5.66
2019-02-22T07:33:56.879Z,5.63
2019-02-22T07:34:56.852Z,5.67
2019-02-22T07:35:56.625Z,5.73
2019-02-22T07:36:56.813Z,5.59
2019-02-22T07:37:56.792Z,5.69
2019-02-22T07:38:56.539Z,5.6
2019-02-22T07:39:56.764Z,5.57
2019-02-22T07:40:56.748Z,5.64
2019-02-22T07:41:56.737Z,5.6
2019-02-22T07:43:07.473Z,5.59
2019-02-22T07:43:56.696Z,5.66
2019-02-22T07:44:56.692Z,5.6
2019-02-22T07:45:56.423Z,5.59
2019-02-22T07:46:56.657Z,5.66
2019-02-22T07:47:56.646Z,5.59
2019-02-22T07:48:56.621Z,5.6
2019-02-22T07:49:56.363Z,5.64
2019-02-22T07:51:03.001Z,5.63
2019-02-22T07:51:56.583Z,5.63
2019-02-22T07:52:56.568Z,5.64
2019-02-22T07:53:56.547Z,5.64
2019-02-22T07:54:56.541Z,5.63
2019-02-22T07:55:56.521Z,5.63
2019-02-22T07:56:56.269Z,5.63
2019-02-22T07:57:56.240Z,5.63
2019-02-22T07:58:56.473Z,5.62
2019-02-22T07:59:56.206Z,5.62
2019-02-22T08:00:56.439Z,5.62
2019-02-22T08:01:56.431Z,5.63
2019-02-22T08:02:56.410Z,5.55
2019-02-22T08:03:56.401Z,5.6
2019-02-22T08:04:56.132Z,5.54
2019-02-22T08:05:56.367Z,5.55
2019-02-22T08:06:56.350Z,5.66
2019-02-22T08:07:56.333Z,5.66
2019-02-22T08:08:56.071Z,5.64
2019-02-22T08:09:56.303Z,5.6
2019-02-22T08:10:56.315Z,5.66
2019-02-22T08:11:56.275Z,5.64
2019-02-22T08:12:56.259Z,5.59
2019-02-22T08:13:56.241Z,5.72
2019-02-22T08:14:56.229Z,5.77
2019-02-22T08:15:55.965Z,5.67
2019-02-22T08:16:56.224Z,5.77
2019-02-22T08:17:56.182Z,5.82
2019-02-22T08:19:06.264Z,5.87
2019-02-22T08:19:56.150Z,5.81
2019-02-22T08:20:56.139Z,5.82
2019-02-22T08:21:55.875Z,5.73
2019-02-22T08:22:56.103Z,5.8
2019-02-22T08:23:56.095Z,5.81
2019-02-22T08:24:56.079Z,5.8
2019-02-22T08:25:56.071Z,5.77
2019-02-22T08:26:56.077Z,5.69
2019-02-22T08:27:59.031Z,5.72
2019-02-22T08:28:56.018Z,5.72
2019-02-22T08:29:56.036Z,5.7
2019-02-22T08:30:55.990Z,5.73
2019-02-22T08:31:55.967Z,5.7
2019-02-22T08:32:55.711Z,5.69
2019-02-22T08:33:57.147Z,5.72
2019-02-22T08:34:55.936Z,5.7
2019-02-22T08:35:55.907Z,5.78
2019-02-22T08:36:55.897Z,5.73
2019-02-22T08:37:55.638Z,5.72
2019-02-22T08:38:55.865Z,5.69
2019-02-22T08:40:04.960Z,5.78
2019-02-22T08:40:55.843Z,5.7
2019-02-22T08:41:55.819Z,5.67
2019-02-22T08:42:55.807Z,5.75
2019-02-22T08:43:55.543Z,5.8
2019-02-22T08:44:55.782Z,5.8
2019-02-22T08:45:55.759Z,5.75
2019-02-22T08:46:55.745Z,5.75
2019-02-22T08:47:55.727Z,5.7
2019-02-22T08:48:55.720Z,5.72
2019-02-22T08:49:55.702Z,5.7
2019-02-22T08:50:55.696Z,5.77
2019-02-22T08:51:55.432Z,5.7
2019-02-22T08:52:55.432Z,5.8
2019-02-22T08:53:55.751Z,5.73
2019-02-22T08:54:55.620Z,5.75
2019-02-22T08:55:55.730Z,5.77
2019-02-22T08:56:55.352Z,5.84
2019-02-22T08:57:55.586Z,5.8
2019-02-22T08:58:55.562Z,5.84
2019-02-22T08:59:55.300Z,5.95
2019-02-22T09:00:55.548Z,5.87
2019-02-22T09:01:55.522Z,5.89
2019-02-22T09:02:55.512Z,5.88
2019-02-22T09:03:56.145Z,5.96
2019-02-22T09:04:55.230Z,5.87
2019-02-22T09:05:55.455Z,5.96
2019-02-22T09:06:57.282Z,5.88
2019-02-22T09:07:55.429Z,5.95
2019-02-22T09:08:55.419Z,5.92
2019-02-22T09:09:54.909Z,5.92
2019-02-22T09:11:05.170Z,5.88
2019-02-22T09:11:57.560Z,5.85
2019-02-22T09:12:55.357Z,5.84
2019-02-22T09:13:55.340Z,5.89
2019-02-22T09:14:55.317Z,5.77
2019-02-22T09:15:55.310Z,5.77
2019-02-22T09:16:55.294Z,5.81
2019-02-22T09:17:57.790Z,5.82
2019-02-22T09:18:55.265Z,5.75
2019-02-22T09:19:55.004Z,5.82
2019-02-22T09:20:55.231Z,5.77
2019-02-22T09:21:55.214Z,5.75
2019-02-22T09:22:55.199Z,5.69
2019-02-22T09:23:55.185Z,5.7
2019-02-22T09:24:55.191Z,5.73
2019-02-22T09:25:55.165Z,5.78
2019-02-22T09:26:55.145Z,5.73
2019-02-22T09:27:54.693Z,5.7
2019-02-22T09:28:57.903Z,5.78
2019-02-22T09:30:03.701Z,5.75
2019-02-22T09:30:55.083Z,5.81
2019-02-22T09:31:55.064Z,5.72
2019-02-22T09:32:54.806Z,5.7
2019-02-22T09:33:55.042Z,5.7
2019-02-22T09:34:54.785Z,5.67
2019-02-22T09:35:55.015Z,5.67
2019-02-22T09:36:54.999Z,5.63
2019-02-22T09:37:54.979Z,5.67
2019-02-22T09:38:54.991Z,5.69
2019-02-22T09:39:54.950Z,5.64
2019-02-22T09:40:54.938Z,5.63
2019-02-22T09:41:54.955Z,5.63
2019-02-22T09:42:54.902Z,5.59
2019-02-22T09:44:00.313Z,5.67
2019-02-22T09:44:54.870Z,5.67
2019-02-22T09:45:54.864Z,5.69
2019-02-22T09:46:54.839Z,5.77
2019-02-22T09:47:54.578Z,5.78
2019-02-22T09:48:54.813Z,5.8
2019-02-22T09:49:54.798Z,5.77
2019-02-22T09:50:54.775Z,5.78
2019-02-22T09:51:54.769Z,5.87
2019-02-22T09:52:54.759Z,5.73
2019-02-22T09:53:54.747Z,5.77
2019-02-22T09:54:54.724Z,5.78
2019-02-22T09:55:54.706Z,5.89
2019-02-22T09:56:55.850Z,5.85
2019-02-22T09:57:54.685Z,5.88
2019-02-22T09:58:54.658Z,5.91
2019-02-22T09:59:54.644Z,5.85
2019-02-22T10:00:54.632Z,5.81
2019-02-22T10:01:54.394Z,5.84
2019-02-22T10:02:54.607Z,5.8
2019-02-22T10:03:54.597Z,5.78
2019-02-22T10:05:00.418Z,5.72
2019-02-22T10:05:54.557Z,5.77
2019-02-22T10:06:54.543Z,5.7
2019-02-22T10:07:54.527Z,5.75
2019-02-22T10:08:54.511Z,5.69
2019-02-22T10:09:54.253Z,5.62
2019-02-22T10:10:54.500Z,5.72
2019-02-22T10:11:54.465Z,5.67
2019-02-22T10:12:54.456Z,5.75
2019-02-22T10:14:06.008Z,5.78
2019-02-22T10:14:54.419Z,5.96
2019-02-22T10:15:54.411Z,5.91
2019-02-22T10:16:54.408Z,6
2019-02-22T10:17:54.379Z,6.14
2019-02-22T10:18:54.364Z,6.17
2019-02-22T10:19:54.346Z,6.25
2019-02-22T10:20:54.341Z,6.24
2019-02-22T10:21:54.315Z,6.25
2019-02-22T10:22:54.055Z,6.39
2019-02-22T10:23:54.288Z,6.34
2019-02-22T10:24:54.271Z,6.25
2019-02-22T10:25:54.265Z,6.37
2019-02-22T10:26:54.253Z,6.49
2019-02-22T10:27:54.236Z,6.46
2019-02-22T10:28:54.282Z,6.46
2019-02-22T10:29:54.206Z,6.43
2019-02-22T10:30:54.197Z,6.43
2019-02-22T10:31:54.173Z,6.31
2019-02-22T10:32:54.159Z,6.28
2019-02-22T10:33:54.150Z,6.2
2019-02-22T10:34:54.131Z,6.13
2019-02-22T10:35:54.116Z,6.06
2019-02-22T10:36:54.111Z,6.07
2019-02-22T10:37:54.099Z,6.13
2019-02-22T10:38:54.072Z,6.1
2019-02-22T10:39:54.057Z,6.03
2019-02-22T10:40:54.044Z,5.95
2019-02-22T10:41:53.783Z,6.02
2019-02-22T10:42:54.017Z,5.92
2019-02-22T10:43:53.997Z,5.77
2019-02-22T10:44:53.739Z,5.77
2019-02-22T10:45:53.971Z,5.75
2019-02-22T10:46:53.960Z,5.77
2019-02-22T10:47:53.959Z,5.73
2019-02-22T10:48:53.930Z,5.62
2019-02-22T10:49:53.916Z,5.49
2019-02-22T10:50:53.985Z,5.48
2019-02-22T10:51:53.907Z,5.42
2019-02-22T10:53:04.272Z,5.36
2019-02-22T10:53:53.853Z,5.33
2019-02-22T10:54:53.840Z,5.18
2019-02-22T10:55:53.829Z,5.23
2019-02-22T10:56:53.816Z,5.3
2019-02-22T10:57:53.795Z,5.27
2019-02-22T10:58:53.777Z,5.2
2019-02-22T10:59:53.762Z,5.13
2019-02-22T11:00:53.753Z,5.18
2019-02-22T11:01:53.727Z,5.18
2019-02-22T11:02:53.729Z,5.15
2019-02-22T11:03:53.704Z,5.15
2019-02-22T11:04:53.687Z,5.06
2019-02-22T11:05:53.674Z,5.15
2019-02-22T11:06:53.656Z,5.16
2019-02-22T11:07:53.647Z,5.12
2019-02-22T11:08:53.623Z,5.15
2019-02-22T11:09:53.839Z,5.02
2019-02-22T11:10:53.599Z,5.06
2019-02-22T11:11:53.343Z,5
2019-02-22T11:12:53.575Z,4.94
2019-02-22T11:13:53.557Z,4.92
2019-02-22T11:14:53.536Z,4.95
2019-02-22T11:15:53.270Z,4.9
2019-02-22T11:16:53.275Z,4.83
2019-02-22T11:17:53.487Z,4.87
2019-02-22T11:18:53.477Z,4.71
2019-02-22T11:19:53.462Z,4.75
2019-02-22T11:20:53.445Z,4.66
2019-02-22T11:21:53.431Z,4.71
2019-02-22T11:22:53.163Z,4.64
2019-02-22T11:23:53.402Z,4.64
2019-02-22T11:24:53.402Z,4.6
2019-02-22T11:25:53.372Z,4.66
2019-02-22T11:26:53.358Z,4.66
2019-02-22T11:27:53.336Z,4.6
2019-02-22T11:28:53.318Z,4.61
2019-02-22T11:29:54.078Z,4.61
2019-02-22T11:30:53.295Z,4.53
2019-02-22T11:31:53.276Z,4.53
2019-02-22T11:32:53.265Z,4.53
2019-02-22T11:33:52.995Z,4.48
2019-02-22T11:34:52.980Z,4.48
2019-02-22T11:35:53.220Z,4.47
2019-02-22T11:36:53.198Z,4.5
2019-02-22T11:37:53.176Z,4.48
2019-02-22T11:38:53.164Z,4.48
2019-02-22T11:39:53.152Z,4.4
2019-02-22T11:40:52.884Z,4.46
2019-02-22T11:41:53.118Z,4.46
2019-02-22T11:42:53.101Z,4.39
2019-02-22T11:43:53.082Z,4.47
2019-02-22T11:44:53.070Z,4.42
2019-02-22T11:45:54.556Z,4.4
2019-02-22T11:46:53.035Z,4.39
2019-02-22T11:47:52.781Z,4.44
2019-02-22T11:48:53.004Z,4.38
2019-02-22T11:49:52.988Z,4.39
2019-02-22T11:50:52.978Z,4.32
2019-02-22T11:51:52.967Z,4.36
2019-02-22T11:52:52.948Z,4.24
2019-02-22T11:53:52.929Z,4.28
2019-02-22T11:54:52.978Z,4.26
2019-02-22T11:55:52.651Z,4.26
2019-02-22T11:56:52.879Z,4.32
2019-02-22T11:57:52.634Z,4.3
2019-02-22T11:58:52.850Z,4.36
2019-02-22T11:59:52.875Z,4.24
2019-02-22T12:00:52.623Z,4.33
2019-02-22T12:01:52.804Z,4.29
2019-02-22T12:02:52.783Z,4.36
2019-02-22T12:03:52.523Z,4.44
2019-02-22T12:04:52.748Z,4.32
2019-02-22T12:05:52.860Z,4.39
2019-02-22T12:06:52.875Z,4.32
2019-02-22T12:07:52.980Z,4.26
2019-02-22T12:08:52.687Z,4.22
2019-02-22T12:09:52.679Z,4.22
2019-02-22T12:10:52.838Z,4.17
2019-02-22T12:11:52.637Z,4.15
2019-02-22T12:12:52.625Z,4.2
2019-02-22T12:13:52.874Z,4.21
2019-02-22T12:14:56.851Z,4.26
2019-02-22T12:15:52.331Z,4.29
2019-02-22T12:16:52.856Z,4.32
2019-02-22T12:17:52.895Z,4.3
2019-02-22T12:18:52.278Z,4.26
2019-02-22T12:19:52.518Z,4.4
2019-02-22T12:20:52.245Z,4.38
2019-02-22T12:21:52.487Z,4.4
2019-02-22T12:22:52.469Z,4.36
2019-02-22T12:23:55.344Z,4.38
2019-02-22T12:24:52.434Z,4.3
2019-02-22T12:25:52.419Z,4.3
2019-02-22T12:26:52.410Z,4.33
2019-02-22T12:27:52.392Z,4.32
2019-02-22T12:28:52.374Z,4.32
2019-02-22T12:29:52.118Z,4.32
2019-02-22T12:30:52.338Z,4.38
2019-02-22T12:31:52.335Z,4.32
2019-02-22T12:32:52.330Z,4.36
2019-02-22T12:33:52.289Z,4.29
2019-02-22T12:34:52.273Z,4.42
2019-02-22T12:35:52.256Z,4.39
2019-02-22T12:36:51.991Z,4.42
2019-02-22T12:37:52.225Z,4.47
2019-02-22T12:38:51.972Z,4.5
2019-02-22T12:39:52.194Z,4.53
2019-02-22T12:40:52.340Z,4.53
2019-02-22T12:41:53.667Z,4.48
2019-02-22T12:42:52.176Z,4.44
2019-02-22T12:43:52.131Z,4.42
2019-02-22T12:45:02.161Z,4.39
2019-02-22T12:45:52.099Z,4.33
2019-02-22T12:46:52.080Z,4.18
2019-02-22T12:47:52.067Z,4.2
2019-02-22T12:48:52.043Z,4.18
2019-02-22T12:49:52.032Z,4.11
2019-02-22T12:50:51.769Z,4.04
2019-02-22T12:51:52.006Z,3.9
2019-02-22T12:52:52.009Z,4
2019-02-22T12:53:51.983Z,4
2019-02-22T12:54:51.961Z,3.89
2019-02-22T12:55:51.935Z,3.94
2019-02-22T12:57:02.699Z,3.86
2019-02-22T12:57:51.901Z,3.89
2019-02-22T12:58:51.884Z,3.86
2019-02-22T12:59:51.871Z,3.85
2019-02-22T13:00:51.881Z,3.82
2019-02-22T13:01:51.844Z,3.84
2019-02-22T13:03:01.441Z,3.72
2019-02-22T13:03:51.807Z,3.74
2019-02-22T13:04:51.546Z,3.76
2019-02-22T13:05:51.869Z,3.76
2019-02-22T13:06:51.755Z,3.64
2019-02-22T13:07:52.597Z,3.64
2019-02-22T13:08:51.726Z,3.61
2019-02-22T13:09:51.506Z,3.51
2019-02-22T13:10:51.696Z,3.57
2019-02-22T13:11:51.828Z,3.54
2019-02-22T13:12:51.664Z,3.53
2019-02-22T13:13:51.645Z,3.54
2019-02-22T13:14:51.847Z,3.56
2019-02-22T13:15:51.615Z,3.51
2019-02-22T13:16:51.597Z,3.54
2019-02-22T13:17:51.583Z,3.53
2019-02-22T13:18:51.580Z,3.54
2019-02-22T13:19:52.031Z,3.61
2019-02-22T13:20:53.214Z,3.67
2019-02-22T13:21:51.575Z,3.56